sensor_id;sensor_type;location;lat;lon;timestamp;P1;durP1;ratioP1;P2;durP2;ratioP2
28166;SDS011;15455;53.376;-6.262;2023-06-14T00:00:00;11.80;;;7.35;;
28166;SDS011;15455;53.376;-6.262;2023-06-14T00:02:48;14.45;;;8.48;;
28166;SDS011;15455;53.376;-6.262;2023-06-14T00:05:34;11.13;;;7.85;;
28166;SDS011;15455;53.376;-6.262;2023-06-14T00:08:24;12.70;;;7.30;;
28166;SDS011;15455;53.376;-6.262;2023-06-14T00:11:10;10.05;;;7.97;;
28166;SDS011;15455;53.376;-6.262;2023-06-14T00:13:56;12.02;;;7.45;;
28166;SDS011;15455;53.376;-6.262;2023-06-14T00:16:41;11.30;;;7.57;;
28166;SDS011;15455;53.376;-6.262;2023-06-14T00:19:30;11.45;;;7.28;;
28166;SDS011;15455;53.376;-6.262;2023-06-14T00:22:18;14.07;;;7.95;;
28166;SDS011;15455;53.376;-6.262;2023-06-14T00:25:03;12.93;;;7.90;;
28166;SDS011;15455;53.376;-6.262;2023-06-14T00:28:03;15.88;;;7.93;;
28166;SDS011;15455;53.376;-6.262;2023-06-14T00:30:49;9.50;;;7.32;;
28166;SDS011;15455;53.376;-6.262;2023-06-14T00:33:34;8.65;;;7.18;;
28166;SDS011;15455;53.376;-6.262;2023-06-14T00:36:20;10.13;;;7.93;;
28166;SDS011;15455;53.376;-6.262;2023-06-14T00:39:06;9.85;;;7.30;;
28166;SDS011;15455;53.376;-6.262;2023-06-14T00:41:52;10.95;;;7.65;;
28166;SDS011;15455;53.376;-6.262;2023-06-14T00:44:38;14.13;;;8.13;;
28166;SDS011;15455;53.376;-6.262;2023-06-14T00:47:24;11.07;;;8.02;;
28166;SDS011;15455;53.376;-6.262;2023-06-14T00:50:10;9.65;;;7.97;;
28166;SDS011;15455;53.376;-6.262;2023-06-14T00:52:56;11.30;;;7.65;;
28166;SDS011;15455;53.376;-6.262;2023-06-14T00:55:42;12.60;;;7.95;;
28166;SDS011;15455;53.376;-6.262;2023-06-14T00:58:28;13.13;;;7.60;;
28166;SDS011;15455;53.376;-6.262;2023-06-14T01:01:15;10.93;;;7.93;;
28166;SDS011;15455;53.376;-6.262;2023-06-14T01:04:01;15.00;;;8.13;;
28166;SDS011;15455;53.376;-6.262;2023-06-14T01:06:55;15.10;;;8.05;;
28166;SDS011;15455;53.376;-6.262;2023-06-14T01:15:48;11.63;;;7.57;;
28166;SDS011;15455;53.376;-6.262;2023-06-14T01:18:36;15.80;;;8.43;;
28166;SDS011;15455;53.376;-6.262;2023-06-14T01:21:25;12.25;;;8.27;;
28166;SDS011;15455;53.376;-6.262;2023-06-14T01:24:11;10.70;;;7.70;;
28166;SDS011;15455;53.376;-6.262;2023-06-14T01:26:57;14.02;;;8.02;;
28166;SDS011;15455;53.376;-6.262;2023-06-14T01:29:45;9.73;;;7.75;;
28166;SDS011;15455;53.376;-6.262;2023-06-14T01:32:33;11.23;;;8.27;;
28166;SDS011;15455;53.376;-6.262;2023-06-14T01:35:20;13.65;;;7.68;;
28166;SDS011;15455;53.376;-6.262;2023-06-14T01:38:06;14.68;;;7.93;;
28166;SDS011;15455;53.376;-6.262;2023-06-14T01:40:53;12.07;;;8.18;;
28166;SDS011;15455;53.376;-6.262;2023-06-14T01:43:43;13.13;;;7.95;;
28166;SDS011;15455;53.376;-6.262;2023-06-14T01:46:29;12.25;;;8.13;;
28166;SDS011;15455;53.376;-6.262;2023-06-14T01:49:15;16.63;;;8.68;;
28166;SDS011;15455;53.376;-6.262;2023-06-14T01:52:01;13.98;;;8.48;;
28166;SDS011;15455;53.376;-6.262;2023-06-14T01:54:46;15.18;;;8.20;;
28166;SDS011;15455;53.376;-6.262;2023-06-14T01:57:33;12.30;;;8.63;;
28166;SDS011;15455;53.376;-6.262;2023-06-14T02:00:19;14.02;;;8.82;;
28166;SDS011;15455;53.376;-6.262;2023-06-14T02:03:09;15.00;;;9.38;;
28166;SDS011;15455;53.376;-6.262;2023-06-14T02:05:56;12.98;;;8.07;;
28166;SDS011;15455;53.376;-6.262;2023-06-14T02:08:42;14.45;;;8.48;;
28166;SDS011;15455;53.376;-6.262;2023-06-14T02:11:27;11.45;;;8.25;;
28166;SDS011;15455;53.376;-6.262;2023-06-14T02:14:13;14.85;;;8.10;;
28166;SDS011;15455;53.376;-6.262;2023-06-14T02:16:59;10.35;;;8.18;;
28166;SDS011;15455;53.376;-6.262;2023-06-14T02:19:46;12.02;;;7.72;;
28166;SDS011;15455;53.376;-6.262;2023-06-14T02:22:31;11.85;;;8.07;;
28166;SDS011;15455;53.376;-6.262;2023-06-14T02:25:17;13.45;;;8.20;;
28166;SDS011;15455;53.376;-6.262;2023-06-14T02:28:02;12.10;;;7.97;;
28166;SDS011;15455;53.376;-6.262;2023-06-14T02:30:49;10.98;;;7.65;;
28166;SDS011;15455;53.376;-6.262;2023-06-14T02:33:34;8.50;;;7.30;;
28166;SDS011;15455;53.376;-6.262;2023-06-14T02:36:20;12.70;;;7.30;;
28166;SDS011;15455;53.376;-6.262;2023-06-14T02:39:05;10.85;;;6.88;;
28166;SDS011;15455;53.376;-6.262;2023-06-14T02:41:51;13.55;;;6.90;;
28166;SDS011;15455;53.376;-6.262;2023-06-14T02:44:38;9.35;;;6.15;;
28166;SDS011;15455;53.376;-6.262;2023-06-14T02:47:23;9.48;;;6.18;;
28166;SDS011;15455;53.376;-6.262;2023-06-14T02:50:09;9.38;;;6.28;;
28166;SDS011;15455;53.376;-6.262;2023-06-14T02:52:55;10.45;;;5.68;;
28166;SDS011;15455;53.376;-6.262;2023-06-14T02:55:42;6.32;;;5.38;;
28166;SDS011;15455;53.376;-6.262;2023-06-14T02:58:29;9.95;;;5.80;;
28166;SDS011;15455;53.376;-6.262;2023-06-14T03:01:15;10.18;;;5.38;;
28166;SDS011;15455;53.376;-6.262;2023-06-14T03:04:02;9.55;;;5.78;;
28166;SDS011;15455;53.376;-6.262;2023-06-14T03:06:53;7.70;;;5.65;;
28166;SDS011;15455;53.376;-6.262;2023-06-14T03:09:40;9.80;;;5.50;;
28166;SDS011;15455;53.376;-6.262;2023-06-14T03:12:29;8.13;;;5.25;;
28166;SDS011;15455;53.376;-6.262;2023-06-14T03:15:14;7.32;;;5.53;;
28166;SDS011;15455;53.376;-6.262;2023-06-14T03:18:04;7.82;;;5.03;;
28166;SDS011;15455;53.376;-6.262;2023-06-14T03:20:50;6.50;;;5.50;;
28166;SDS011;15455;53.376;-6.262;2023-06-14T03:23:36;7.43;;;5.47;;
28166;SDS011;15455;53.376;-6.262;2023-06-14T03:26:22;7.20;;;5.03;;
28166;SDS011;15455;53.376;-6.262;2023-06-14T03:29:10;10.65;;;5.47;;
28166;SDS011;15455;53.376;-6.262;2023-06-14T03:31:56;9.98;;;5.43;;
28166;SDS011;15455;53.376;-6.262;2023-06-14T03:34:54;7.38;;;5.30;;
28166;SDS011;15455;53.376;-6.262;2023-06-14T03:37:41;9.65;;;5.45;;
28166;SDS011;15455;53.376;-6.262;2023-06-14T03:40:27;10.75;;;5.35;;
28166;SDS011;15455;53.376;-6.262;2023-06-14T03:43:19;8.35;;;5.38;;
28166;SDS011;15455;53.376;-6.262;2023-06-14T03:46:04;9.07;;;5.32;;
28166;SDS011;15455;53.376;-6.262;2023-06-14T03:48:51;9.10;;;5.68;;
28166;SDS011;15455;53.376;-6.262;2023-06-14T03:51:37;6.93;;;5.35;;
28166;SDS011;15455;53.376;-6.262;2023-06-14T03:54:22;8.38;;;5.97;;
28166;SDS011;15455;53.376;-6.262;2023-06-14T03:57:29;6.88;;;5.78;;
28166;SDS011;15455;53.376;-6.262;2023-06-14T04:00:17;7.82;;;5.68;;
28166;SDS011;15455;53.376;-6.262;2023-06-14T04:03:03;9.00;;;5.50;;
28166;SDS011;15455;53.376;-6.262;2023-06-14T04:05:51;8.82;;;4.97;;
28166;SDS011;15455;53.376;-6.262;2023-06-14T04:08:42;9.10;;;5.53;;
28166;SDS011;15455;53.376;-6.262;2023-06-14T04:11:27;8.20;;;5.63;;
28166;SDS011;15455;53.376;-6.262;2023-06-14T04:14:13;9.30;;;5.47;;
28166;SDS011;15455;53.376;-6.262;2023-06-14T04:16:59;7.78;;;6.07;;
28166;SDS011;15455;53.376;-6.262;2023-06-14T04:19:45;8.63;;;5.60;;
28166;SDS011;15455;53.376;-6.262;2023-06-14T04:22:30;6.88;;;5.07;;
28166;SDS011;15455;53.376;-6.262;2023-06-14T04:25:17;7.07;;;5.25;;
28166;SDS011;15455;53.376;-6.262;2023-06-14T04:28:11;7.82;;;5.28;;
28166;SDS011;15455;53.376;-6.262;2023-06-14T04:30:58;7.88;;;6.13;;
28166;SDS011;15455;53.376;-6.262;2023-06-14T04:33:48;9.55;;;5.43;;
28166;SDS011;15455;53.376;-6.262;2023-06-14T04:36:39;10.68;;;5.10;;
28166;SDS011;15455;53.376;-6.262;2023-06-14T04:39:27;6.70;;;5.05;;
28166;SDS011;15455;53.376;-6.262;2023-06-14T04:42:13;10.38;;;5.82;;
28166;SDS011;15455;53.376;-6.262;2023-06-14T04:44:59;6.07;;;5.10;;
28166;SDS011;15455;53.376;-6.262;2023-06-14T04:47:45;8.48;;;5.85;;
28166;SDS011;15455;53.376;-6.262;2023-06-14T04:50:31;11.90;;;5.95;;
28166;SDS011;15455;53.376;-6.262;2023-06-14T04:53:18;10.55;;;5.35;;
28166;SDS011;15455;53.376;-6.262;2023-06-14T04:56:08;10.13;;;5.32;;
28166;SDS011;15455;53.376;-6.262;2023-06-14T04:58:55;10.80;;;5.45;;
28166;SDS011;15455;53.376;-6.262;2023-06-14T05:01:41;8.93;;;5.38;;
28166;SDS011;15455;53.376;-6.262;2023-06-14T05:04:27;6.22;;;4.93;;
28166;SDS011;15455;53.376;-6.262;2023-06-14T05:07:14;7.53;;;5.40;;
28166;SDS011;15455;53.376;-6.262;2023-06-14T05:10:00;6.85;;;5.63;;
28166;SDS011;15455;53.376;-6.262;2023-06-14T05:12:46;7.22;;;5.57;;
28166;SDS011;15455;53.376;-6.262;2023-06-14T05:15:35;9.25;;;4.88;;
28166;SDS011;15455;53.376;-6.262;2023-06-14T05:18:21;9.13;;;5.30;;
28166;SDS011;15455;53.376;-6.262;2023-06-14T05:21:06;10.05;;;5.05;;
28166;SDS011;15455;53.376;-6.262;2023-06-14T05:23:51;8.68;;;4.68;;
28166;SDS011;15455;53.376;-6.262;2023-06-14T05:26:37;14.90;;;5.57;;
28166;SDS011;15455;53.376;-6.262;2023-06-14T05:29:22;8.10;;;5.75;;
28166;SDS011;15455;53.376;-6.262;2023-06-14T05:32:08;8.35;;;5.38;;
28166;SDS011;15455;53.376;-6.262;2023-06-14T05:34:54;10.27;;;5.00;;
28166;SDS011;15455;53.376;-6.262;2023-06-14T05:37:39;10.60;;;5.45;;
28166;SDS011;15455;53.376;-6.262;2023-06-14T05:40:25;8.48;;;5.07;;
28166;SDS011;15455;53.376;-6.262;2023-06-14T05:43:10;8.30;;;4.90;;
28166;SDS011;15455;53.376;-6.262;2023-06-14T05:45:56;9.57;;;5.70;;
28166;SDS011;15455;53.376;-6.262;2023-06-14T05:48:41;8.45;;;5.70;;
28166;SDS011;15455;53.376;-6.262;2023-06-14T05:51:27;9.85;;;5.40;;
28166;SDS011;15455;53.376;-6.262;2023-06-14T05:54:12;8.95;;;5.43;;
28166;SDS011;15455;53.376;-6.262;2023-06-14T05:56:58;9.88;;;5.15;;
28166;SDS011;15455;53.376;-6.262;2023-06-14T05:59:46;9.30;;;5.65;;
28166;SDS011;15455;53.376;-6.262;2023-06-14T06:02:31;7.78;;;5.10;;
28166;SDS011;15455;53.376;-6.262;2023-06-14T06:05:17;10.63;;;5.65;;
28166;SDS011;15455;53.376;-6.262;2023-06-14T06:08:03;6.97;;;4.63;;
28166;SDS011;15455;53.376;-6.262;2023-06-14T06:10:49;5.85;;;4.32;;
28166;SDS011;15455;53.376;-6.262;2023-06-14T06:13:35;9.73;;;4.45;;
28166;SDS011;15455;53.376;-6.262;2023-06-14T06:16:20;8.68;;;4.50;;
28166;SDS011;15455;53.376;-6.262;2023-06-14T06:19:06;5.43;;;4.47;;
28166;SDS011;15455;53.376;-6.262;2023-06-14T06:21:51;8.70;;;3.60;;
28166;SDS011;15455;53.376;-6.262;2023-06-14T06:24:36;6.38;;;4.18;;
28166;SDS011;15455;53.376;-6.262;2023-06-14T06:27:22;7.20;;;4.38;;
28166;SDS011;15455;53.376;-6.262;2023-06-14T06:30:07;7.75;;;3.70;;
28166;SDS011;15455;53.376;-6.262;2023-06-14T06:32:53;4.80;;;3.35;;
28166;SDS011;15455;53.376;-6.262;2023-06-14T06:35:39;7.57;;;3.70;;
28166;SDS011;15455;53.376;-6.262;2023-06-14T06:38:25;5.20;;;3.63;;
28166;SDS011;15455;53.376;-6.262;2023-06-14T06:41:10;8.85;;;3.17;;
28166;SDS011;15455;53.376;-6.262;2023-06-14T06:43:55;6.82;;;3.72;;
28166;SDS011;15455;53.376;-6.262;2023-06-14T06:46:46;7.93;;;3.75;;
28166;SDS011;15455;53.376;-6.262;2023-06-14T06:49:32;5.28;;;3.75;;
28166;SDS011;15455;53.376;-6.262;2023-06-14T06:52:17;7.00;;;3.47;;
28166;SDS011;15455;53.376;-6.262;2023-06-14T06:55:03;6.57;;;3.50;;
28166;SDS011;15455;53.376;-6.262;2023-06-14T06:57:49;5.22;;;3.88;;
28166;SDS011;15455;53.376;-6.262;2023-06-14T07:00:34;6.63;;;3.50;;
28166;SDS011;15455;53.376;-6.262;2023-06-14T07:03:20;6.95;;;3.53;;
28166;SDS011;15455;53.376;-6.262;2023-06-14T07:06:06;8.70;;;3.67;;
28166;SDS011;15455;53.376;-6.262;2023-06-14T07:08:52;5.75;;;3.13;;
28166;SDS011;15455;53.376;-6.262;2023-06-14T07:11:40;4.70;;;3.50;;
28166;SDS011;15455;53.376;-6.262;2023-06-14T07:14:27;8.70;;;3.25;;
28166;SDS011;15455;53.376;-6.262;2023-06-14T07:17:15;12.18;;;3.72;;
28166;SDS011;15455;53.376;-6.262;2023-06-14T07:20:02;3.95;;;3.05;;
28166;SDS011;15455;53.376;-6.262;2023-06-14T07:22:52;5.32;;;3.38;;
28166;SDS011;15455;53.376;-6.262;2023-06-14T07:25:38;6.03;;;3.60;;
28166;SDS011;15455;53.376;-6.262;2023-06-14T07:28:23;9.50;;;4.00;;
28166;SDS011;15455;53.376;-6.262;2023-06-14T07:31:08;4.88;;;3.47;;
28166;SDS011;15455;53.376;-6.262;2023-06-14T07:33:54;7.88;;;3.33;;
28166;SDS011;15455;53.376;-6.262;2023-06-14T07:36:40;7.55;;;3.47;;
28166;SDS011;15455;53.376;-6.262;2023-06-14T07:39:26;8.18;;;3.35;;
28166;SDS011;15455;53.376;-6.262;2023-06-14T07:42:11;3.28;;;2.75;;
28166;SDS011;15455;53.376;-6.262;2023-06-14T07:44:56;9.20;;;3.53;;
28166;SDS011;15455;53.376;-6.262;2023-06-14T07:47:42;5.00;;;3.53;;
28166;SDS011;15455;53.376;-6.262;2023-06-14T07:50:28;8.73;;;3.38;;
28166;SDS011;15455;53.376;-6.262;2023-06-14T07:53:14;4.65;;;3.10;;
28166;SDS011;15455;53.376;-6.262;2023-06-14T07:55:59;4.10;;;3.13;;
28166;SDS011;15455;53.376;-6.262;2023-06-14T07:58:45;7.78;;;3.58;;
28166;SDS011;15455;53.376;-6.262;2023-06-14T08:01:31;4.07;;;3.03;;
28166;SDS011;15455;53.376;-6.262;2023-06-14T08:04:16;3.90;;;2.97;;
28166;SDS011;15455;53.376;-6.262;2023-06-14T08:07:02;5.13;;;3.20;;
28166;SDS011;15455;53.376;-6.262;2023-06-14T08:09:51;6.20;;;3.78;;
28166;SDS011;15455;53.376;-6.262;2023-06-14T08:12:37;5.30;;;2.85;;
28166;SDS011;15455;53.376;-6.262;2023-06-14T08:15:23;7.10;;;3.60;;
28166;SDS011;15455;53.376;-6.262;2023-06-14T08:18:08;8.30;;;3.40;;
28166;SDS011;15455;53.376;-6.262;2023-06-14T08:20:54;3.78;;;2.90;;
28166;SDS011;15455;53.376;-6.262;2023-06-14T08:23:40;5.28;;;3.30;;
28166;SDS011;15455;53.376;-6.262;2023-06-14T08:26:28;5.47;;;3.45;;
28166;SDS011;15455;53.376;-6.262;2023-06-14T08:29:14;3.88;;;2.97;;
28166;SDS011;15455;53.376;-6.262;2023-06-14T08:32:00;9.40;;;3.85;;
28166;SDS011;15455;53.376;-6.262;2023-06-14T08:34:45;4.25;;;3.20;;
28166;SDS011;15455;53.376;-6.262;2023-06-14T08:37:49;5.32;;;3.30;;
28166;SDS011;15455;53.376;-6.262;2023-06-14T08:40:36;5.80;;;2.90;;
28166;SDS011;15455;53.376;-6.262;2023-06-14T08:43:23;7.47;;;2.97;;
28166;SDS011;15455;53.376;-6.262;2023-06-14T08:46:08;5.30;;;2.90;;
28166;SDS011;15455;53.376;-6.262;2023-06-14T08:48:56;4.07;;;2.45;;
28166;SDS011;15455;53.376;-6.262;2023-06-14T08:51:44;7.15;;;3.00;;
28166;SDS011;15455;53.376;-6.262;2023-06-14T08:54:32;3.50;;;2.50;;
28166;SDS011;15455;53.376;-6.262;2023-06-14T08:57:21;3.72;;;2.17;;
28166;SDS011;15455;53.376;-6.262;2023-06-14T09:00:07;3.97;;;2.17;;
28166;SDS011;15455;53.376;-6.262;2023-06-14T09:02:57;4.30;;;1.98;;
28166;SDS011;15455;53.376;-6.262;2023-06-14T09:05:43;2.55;;;2.05;;
28166;SDS011;15455;53.376;-6.262;2023-06-14T09:08:31;10.13;;;2.38;;
28166;SDS011;15455;53.376;-6.262;2023-06-14T09:11:17;3.72;;;2.30;;
28166;SDS011;15455;53.376;-6.262;2023-06-14T09:14:04;5.38;;;2.67;;
28166;SDS011;15455;53.376;-6.262;2023-06-14T09:16:53;6.32;;;3.25;;
28166;SDS011;15455;53.376;-6.262;2023-06-14T09:19:39;4.47;;;2.38;;
28166;SDS011;15455;53.376;-6.262;2023-06-14T09:22:29;8.00;;;2.47;;
28166;SDS011;15455;53.376;-6.262;2023-06-14T09:25:16;4.20;;;2.53;;
28166;SDS011;15455;53.376;-6.262;2023-06-14T09:28:26;9.90;;;2.45;;
28166;SDS011;15455;53.376;-6.262;2023-06-14T09:31:17;6.70;;;2.97;;
28166;SDS011;15455;53.376;-6.262;2023-06-14T09:34:03;4.35;;;2.35;;
28166;SDS011;15455;53.376;-6.262;2023-06-14T09:36:49;5.78;;;2.20;;
28166;SDS011;15455;53.376;-6.262;2023-06-14T09:39:35;3.72;;;2.20;;
28166;SDS011;15455;53.376;-6.262;2023-06-14T09:42:34;3.80;;;2.20;;
28166;SDS011;15455;53.376;-6.262;2023-06-14T09:45:22;4.30;;;2.03;;
28166;SDS011;15455;53.376;-6.262;2023-06-14T09:48:07;7.55;;;2.30;;
28166;SDS011;15455;53.376;-6.262;2023-06-14T09:50:55;5.50;;;2.03;;
28166;SDS011;15455;53.376;-6.262;2023-06-14T09:53:41;7.75;;;2.67;;
28166;SDS011;15455;53.376;-6.262;2023-06-14T09:56:29;4.13;;;1.80;;
28166;SDS011;15455;53.376;-6.262;2023-06-14T09:59:16;3.55;;;2.20;;
28166;SDS011;15455;53.376;-6.262;2023-06-14T10:02:07;3.67;;;1.77;;
28166;SDS011;15455;53.376;-6.262;2023-06-14T10:05:07;4.40;;;2.45;;
28166;SDS011;15455;53.376;-6.262;2023-06-14T10:08:00;4.47;;;2.10;;
28166;SDS011;15455;53.376;-6.262;2023-06-14T10:10:56;3.42;;;1.92;;
28166;SDS011;15455;53.376;-6.262;2023-06-14T10:13:42;5.63;;;2.00;;
28166;SDS011;15455;53.376;-6.262;2023-06-14T10:16:31;6.18;;;2.22;;
28166;SDS011;15455;53.376;-6.262;2023-06-14T10:19:24;8.90;;;2.30;;
28166;SDS011;15455;53.376;-6.262;2023-06-14T10:22:22;3.97;;;2.30;;
28166;SDS011;15455;53.376;-6.262;2023-06-14T10:25:28;3.42;;;1.95;;
28166;SDS011;15455;53.376;-6.262;2023-06-14T10:28:15;6.85;;;2.08;;
28166;SDS011;15455;53.376;-6.262;2023-06-14T10:31:08;4.53;;;2.20;;
28166;SDS011;15455;53.376;-6.262;2023-06-14T10:33:56;4.47;;;2.22;;
28166;SDS011;15455;53.376;-6.262;2023-06-14T10:36:42;5.13;;;1.55;;
28166;SDS011;15455;53.376;-6.262;2023-06-14T10:39:28;5.25;;;2.17;;
28166;SDS011;15455;53.376;-6.262;2023-06-14T10:42:15;7.40;;;2.75;;
28166;SDS011;15455;53.376;-6.262;2023-06-14T10:45:01;6.63;;;2.10;;
28166;SDS011;15455;53.376;-6.262;2023-06-14T10:47:47;6.60;;;2.75;;
28166;SDS011;15455;53.376;-6.262;2023-06-14T10:50:34;6.18;;;2.35;;
28166;SDS011;15455;53.376;-6.262;2023-06-14T10:53:23;3.88;;;2.17;;
28166;SDS011;15455;53.376;-6.262;2023-06-14T10:56:09;10.57;;;3.28;;
28166;SDS011;15455;53.376;-6.262;2023-06-14T10:59:15;8.80;;;3.08;;
28166;SDS011;15455;53.376;-6.262;2023-06-14T11:05:31;10.57;;;3.72;;
28166;SDS011;15455;53.376;-6.262;2023-06-14T11:11:25;6.47;;;3.22;;
28166;SDS011;15455;53.376;-6.262;2023-06-14T11:14:20;5.93;;;3.58;;
28166;SDS011;15455;53.376;-6.262;2023-06-14T11:17:06;5.45;;;3.35;;
28166;SDS011;15455;53.376;-6.262;2023-06-14T11:20:07;7.03;;;3.47;;
28166;SDS011;15455;53.376;-6.262;2023-06-14T11:23:04;5.68;;;3.30;;
28166;SDS011;15455;53.376;-6.262;2023-06-14T11:25:51;8.80;;;4.50;;
28166;SDS011;15455;53.376;-6.262;2023-06-14T11:28:37;6.95;;;3.78;;
28166;SDS011;15455;53.376;-6.262;2023-06-14T11:31:27;8.30;;;3.63;;
28166;SDS011;15455;53.376;-6.262;2023-06-14T11:34:14;6.38;;;3.67;;
28166;SDS011;15455;53.376;-6.262;2023-06-14T11:37:00;5.65;;;3.40;;
28166;SDS011;15455;53.376;-6.262;2023-06-14T11:39:46;7.88;;;3.10;;
28166;SDS011;15455;53.376;-6.262;2023-06-14T11:42:32;6.68;;;3.53;;
28166;SDS011;15455;53.376;-6.262;2023-06-14T11:45:18;11.18;;;3.35;;
28166;SDS011;15455;53.376;-6.262;2023-06-14T11:48:04;6.03;;;3.08;;
28166;SDS011;15455;53.376;-6.262;2023-06-14T11:50:51;6.07;;;2.88;;
28166;SDS011;15455;53.376;-6.262;2023-06-14T11:53:38;8.93;;;3.25;;
28166;SDS011;15455;53.376;-6.262;2023-06-14T11:56:23;4.65;;;3.53;;
28166;SDS011;15455;53.376;-6.262;2023-06-14T11:59:10;6.47;;;2.70;;
28166;SDS011;15455;53.376;-6.262;2023-06-14T12:01:58;6.20;;;3.13;;
28166;SDS011;15455;53.376;-6.262;2023-06-14T12:04:48;5.75;;;2.80;;
28166;SDS011;15455;53.376;-6.262;2023-06-14T12:07:34;8.63;;;3.08;;
28166;SDS011;15455;53.376;-6.262;2023-06-14T12:10:21;12.52;;;2.97;;
28166;SDS011;15455;53.376;-6.262;2023-06-14T12:13:07;11.07;;;2.35;;
28166;SDS011;15455;53.376;-6.262;2023-06-14T12:15:56;7.60;;;2.47;;
28166;SDS011;15455;53.376;-6.262;2023-06-14T12:18:42;6.03;;;2.28;;
28166;SDS011;15455;53.376;-6.262;2023-06-14T12:21:29;5.18;;;2.88;;
28166;SDS011;15455;53.376;-6.262;2023-06-14T12:24:15;6.15;;;2.55;;
28166;SDS011;15455;53.376;-6.262;2023-06-14T12:27:01;6.10;;;2.22;;
28166;SDS011;15455;53.376;-6.262;2023-06-14T12:29:58;3.63;;;2.00;;
28166;SDS011;15455;53.376;-6.262;2023-06-14T12:32:44;7.57;;;2.50;;
28166;SDS011;15455;53.376;-6.262;2023-06-14T12:35:31;6.30;;;2.40;;
28166;SDS011;15455;53.376;-6.262;2023-06-14T12:38:16;5.60;;;2.45;;
28166;SDS011;15455;53.376;-6.262;2023-06-14T12:41:02;7.97;;;2.33;;
28166;SDS011;15455;53.376;-6.262;2023-06-14T12:43:48;9.57;;;2.78;;
28166;SDS011;15455;53.376;-6.262;2023-06-14T12:46:34;8.57;;;2.20;;
28166;SDS011;15455;53.376;-6.262;2023-06-14T12:49:24;5.90;;;2.70;;
28166;SDS011;15455;53.376;-6.262;2023-06-14T12:52:10;5.00;;;2.33;;
28166;SDS011;15455;53.376;-6.262;2023-06-14T12:54:55;4.57;;;2.53;;
28166;SDS011;15455;53.376;-6.262;2023-06-14T12:57:41;5.80;;;2.47;;
28166;SDS011;15455;53.376;-6.262;2023-06-14T13:00:26;6.70;;;3.42;;
28166;SDS011;15455;53.376;-6.262;2023-06-14T13:03:12;7.05;;;2.83;;
28166;SDS011;15455;53.376;-6.262;2023-06-14T13:05:58;7.10;;;2.50;;
28166;SDS011;15455;53.376;-6.262;2023-06-14T13:08:44;6.68;;;2.33;;
28166;SDS011;15455;53.376;-6.262;2023-06-14T13:11:29;5.15;;;2.47;;
28166;SDS011;15455;53.376;-6.262;2023-06-14T13:14:15;12.05;;;2.90;;
28166;SDS011;15455;53.376;-6.262;2023-06-14T13:19:25;4.60;;;2.53;;
28166;SDS011;15455;53.376;-6.262;2023-06-14T13:22:11;5.18;;;2.45;;
28166;SDS011;15455;53.376;-6.262;2023-06-14T13:24:56;6.28;;;2.42;;
28166;SDS011;15455;53.376;-6.262;2023-06-14T13:27:42;7.10;;;2.75;;
28166;SDS011;15455;53.376;-6.262;2023-06-14T13:30:27;5.38;;;2.30;;
28166;SDS011;15455;53.376;-6.262;2023-06-14T13:33:13;6.53;;;2.13;;
28166;SDS011;15455;53.376;-6.262;2023-06-14T13:35:58;7.47;;;2.40;;
28166;SDS011;15455;53.376;-6.262;2023-06-14T13:38:44;6.60;;;2.10;;
28166;SDS011;15455;53.376;-6.262;2023-06-14T13:41:33;3.90;;;2.08;;
28166;SDS011;15455;53.376;-6.262;2023-06-14T13:44:20;4.38;;;2.88;;
28166;SDS011;15455;53.376;-6.262;2023-06-14T13:47:06;4.80;;;2.20;;
28166;SDS011;15455;53.376;-6.262;2023-06-14T13:49:52;6.72;;;2.70;;
28166;SDS011;15455;53.376;-6.262;2023-06-14T13:52:37;3.28;;;2.20;;
28166;SDS011;15455;53.376;-6.262;2023-06-14T13:55:22;8.30;;;2.60;;
28166;SDS011;15455;53.376;-6.262;2023-06-14T13:58:08;4.43;;;2.35;;
28166;SDS011;15455;53.376;-6.262;2023-06-14T14:00:53;4.80;;;2.22;;
28166;SDS011;15455;53.376;-6.262;2023-06-14T14:03:39;5.90;;;2.20;;
28166;SDS011;15455;53.376;-6.262;2023-06-14T14:06:25;2.65;;;2.25;;
28166;SDS011;15455;53.376;-6.262;2023-06-14T14:09:10;7.82;;;2.53;;
28166;SDS011;15455;53.376;-6.262;2023-06-14T14:11:56;2.85;;;2.30;;
28166;SDS011;15455;53.376;-6.262;2023-06-14T14:14:42;4.13;;;1.75;;
28166;SDS011;15455;53.376;-6.262;2023-06-14T14:17:27;3.90;;;2.13;;
28166;SDS011;15455;53.376;-6.262;2023-06-14T14:20:13;4.95;;;1.90;;
28166;SDS011;15455;53.376;-6.262;2023-06-14T14:23:01;6.25;;;1.95;;
28166;SDS011;15455;53.376;-6.262;2023-06-14T14:25:47;4.00;;;2.17;;
28166;SDS011;15455;53.376;-6.262;2023-06-14T14:28:33;5.40;;;2.00;;
28166;SDS011;15455;53.376;-6.262;2023-06-14T14:31:18;5.25;;;1.95;;
28166;SDS011;15455;53.376;-6.262;2023-06-14T14:34:04;4.63;;;2.63;;
28166;SDS011;15455;53.376;-6.262;2023-06-14T14:36:50;4.63;;;2.05;;
28166;SDS011;15455;53.376;-6.262;2023-06-14T14:39:36;6.07;;;2.30;;
28166;SDS011;15455;53.376;-6.262;2023-06-14T14:42:22;4.35;;;2.28;;
28166;SDS011;15455;53.376;-6.262;2023-06-14T14:45:08;2.60;;;1.75;;
28166;SDS011;15455;53.376;-6.262;2023-06-14T14:47:54;3.72;;;1.88;;
28166;SDS011;15455;53.376;-6.262;2023-06-14T14:50:40;8.85;;;2.45;;
28166;SDS011;15455;53.376;-6.262;2023-06-14T14:53:25;6.13;;;2.28;;
28166;SDS011;15455;53.376;-6.262;2023-06-14T14:56:11;7.40;;;2.30;;
28166;SDS011;15455;53.376;-6.262;2023-06-14T14:58:57;5.80;;;2.45;;
28166;SDS011;15455;53.376;-6.262;2023-06-14T15:01:42;10.02;;;2.47;;
28166;SDS011;15455;53.376;-6.262;2023-06-14T15:04:28;4.88;;;2.00;;
28166;SDS011;15455;53.376;-6.262;2023-06-14T15:07:14;5.20;;;2.53;;
28166;SDS011;15455;53.376;-6.262;2023-06-14T15:10:00;5.55;;;1.90;;
28166;SDS011;15455;53.376;-6.262;2023-06-14T15:12:46;4.75;;;2.03;;
28166;SDS011;15455;53.376;-6.262;2023-06-14T15:15:31;2.78;;;1.77;;
28166;SDS011;15455;53.376;-6.262;2023-06-14T15:18:17;3.53;;;1.77;;
28166;SDS011;15455;53.376;-6.262;2023-06-14T15:21:05;3.05;;;2.10;;
28166;SDS011;15455;53.376;-6.262;2023-06-14T15:23:51;4.22;;;2.13;;
28166;SDS011;15455;53.376;-6.262;2023-06-14T15:26:38;3.20;;;1.90;;
28166;SDS011;15455;53.376;-6.262;2023-06-14T15:29:23;3.78;;;2.08;;
28166;SDS011;15455;53.376;-6.262;2023-06-14T15:32:08;5.90;;;2.78;;
28166;SDS011;15455;53.376;-6.262;2023-06-14T15:34:54;3.38;;;2.15;;
28166;SDS011;15455;53.376;-6.262;2023-06-14T15:37:40;4.80;;;2.17;;
28166;SDS011;15455;53.376;-6.262;2023-06-14T15:40:26;5.50;;;2.22;;
28166;SDS011;15455;53.376;-6.262;2023-06-14T15:43:13;6.30;;;2.25;;
28166;SDS011;15455;53.376;-6.262;2023-06-14T15:45:58;6.93;;;2.42;;
28166;SDS011;15455;53.376;-6.262;2023-06-14T15:48:43;8.15;;;2.05;;
28166;SDS011;15455;53.376;-6.262;2023-06-14T15:51:29;9.05;;;2.40;;
28166;SDS011;15455;53.376;-6.262;2023-06-14T15:54:14;4.43;;;2.20;;
28166;SDS011;15455;53.376;-6.262;2023-06-14T15:57:00;3.63;;;2.08;;
28166;SDS011;15455;53.376;-6.262;2023-06-14T15:59:45;8.02;;;2.47;;
28166;SDS011;15455;53.376;-6.262;2023-06-14T16:02:31;8.48;;;2.25;;
28166;SDS011;15455;53.376;-6.262;2023-06-14T16:05:16;7.43;;;2.72;;
28166;SDS011;15455;53.376;-6.262;2023-06-14T16:08:02;6.35;;;2.40;;
28166;SDS011;15455;53.376;-6.262;2023-06-14T16:10:48;6.10;;;2.45;;
28166;SDS011;15455;53.376;-6.262;2023-06-14T16:13:35;4.35;;;2.58;;
28166;SDS011;15455;53.376;-6.262;2023-06-14T16:16:21;3.42;;;1.85;;
28166;SDS011;15455;53.376;-6.262;2023-06-14T16:19:07;7.22;;;2.70;;
28166;SDS011;15455;53.376;-6.262;2023-06-14T16:21:53;4.93;;;2.10;;
28166;SDS011;15455;53.376;-6.262;2023-06-14T16:24:38;4.53;;;2.50;;
28166;SDS011;15455;53.376;-6.262;2023-06-14T16:27:24;5.72;;;2.17;;
28166;SDS011;15455;53.376;-6.262;2023-06-14T16:30:10;3.25;;;2.13;;
28166;SDS011;15455;53.376;-6.262;2023-06-14T16:32:56;5.28;;;2.65;;
28166;SDS011;15455;53.376;-6.262;2023-06-14T16:35:42;4.97;;;2.25;;
28166;SDS011;15455;53.376;-6.262;2023-06-14T16:38:27;6.15;;;2.15;;
28166;SDS011;15455;53.376;-6.262;2023-06-14T16:41:13;5.25;;;2.35;;